Terminal Aerodrome Forecast
Issued by NWS

Home | Current Version | Previous Version | Text Only | Print | Product List | Glossary On
Versions: 1 2 3 4 5 6 7 8 9 10 11 12 13 14 15 16 17 18 19 20
000
FTUS43 KICT 291400 AAC
TAFSLN
TAF AMD
KSLN 291400Z 2914/3012 04014G20KT 5SM -SHRA SCT015 OVC040
      TEMPO 2914/2918 3SM SHRA SCT009 OVC014
     FM292100 09017G24KT 6SM -TSRA OVC012CB
     FM300400 11017G26KT 5SM -TSRA BR OVC008CB
     FM300900 18016G24KT P6SM VCTS SCT009 BKN012CB=

USA.gov is the U.S. government's official web portal to all federal, state and local government web resources and services.